Time;durP1;ratioP1;P1;durP2;ratioP2;P2;SDS_P1;SDS_P2;PMS_P1;PMS_P2;Temp;Humidity;BMP_temperature;BMP_pressure;BME280_temperature;BME280_humidity;BME280_pressure;Samples;Min_cycle;Max_cycle;Signal;HPM_P1;HPM_P2
2022/01/01 00:00:57;;;;;;;;;;;;;;;9.90;99.68;102548.59;5116635;28;19924;-79
2022/01/01 00:03:25;;;;;;;;;;;;;;;9.91;97.29;102546.84;5117278;28;19930;-79
2022/01/01 00:05:51;;;;;;;;;;;;;;;9.94;95.63;102547.94;5099141;28;19930;-79
2022/01/01 00:08:17;;;;;;;;;;;;;;;9.94;94.23;102545.31;5099563;28;19923;-79
2022/01/01 00:10:42;;;;;;;;;;;;;;;9.93;92.47;102554.03;5101179;28;19948;-78
2022/01/01 00:13:13;;;;;;;;;;;;;;;9.95;89.53;102547.16;5098700;28;19927;-78
2022/01/01 00:15:39;;;;;;;;;;;;;;;9.96;87.81;102542.78;5099634;28;19928;-79
2022/01/01 00:18:07;;;;;;;;;;;;;;;10.00;85.02;102537.81;5115351;28;19920;-79
2022/01/01 00:20:33;;;;;;;;;;;;;;;10.00;83.76;102537.81;5116635;28;19920;-80
2022/01/01 00:22:58;;;;;;;;;;;;;;;10.03;82.23;102545.91;5099232;28;20045;-80
2022/01/01 00:25:23;;;;;;;;;;;;;;;10.03;81.20;102531.88;5098767;28;19955;-78
2022/01/01 00:27:53;;;;;;;;;;;;;;;10.00;79.61;102526.41;5098216;28;19963;-78
2022/01/01 00:30:20;;;;;;;;;;;;;;;9.97;77.58;102527.09;5097441;28;20331;-79
2022/01/01 00:32:45;;;;;;;;;;;;;;;9.96;74.77;102520.03;5104745;28;19992;-80
2022/01/01 00:35:15;;;;;;;;;;;;;;;9.94;73.37;102524.25;5116623;28;19920;-79
2022/01/01 00:37:41;;;;;;;;;;;;;;;9.93;71.99;102524.16;5116431;28;20011;-79
2022/01/01 00:40:07;;;;;;;;;;;;;;;9.88;71.20;102526.50;5116655;28;19958;-80
2022/01/01 00:42:32;;;;;;;;;;;;;;;9.85;70.45;102505.25;5117125;28;19924;-80
2022/01/01 00:44:57;;;;;;;;;;;;;;;9.85;69.53;102410.53;5114385;28;19933;-79
2022/01/01 00:47:26;;;;;;;;;;;;;;;9.84;68.94;102406.09;5117249;28;19923;-79
2022/01/01 00:49:52;;;;;;;;;;;;;;;9.82;68.49;102416.53;5116221;28;19934;-79
2022/01/01 00:52:23;;;;;;;;;;;;;;;9.88;67.85;102422.19;5100002;28;19923;-79
2022/01/01 00:54:49;;;;;;;;;;;;;;;9.87;67.51;102419.44;5117801;28;19941;-79
2022/01/01 00:57:19;;;;;;;;;;;;;;;9.82;67.30;102416.53;5117580;28;19942;-80
2022/01/01 00:59:45;;;;;;;;;;;;;;;9.88;67.05;102422.19;5116206;28;20014;-78
2022/01/01 01:02:16;;;;;;;;;;;;;;;9.81;66.92;102424.31;5116956;28;19959;-79
2022/01/01 01:04:43;;;;;;;;;;;;;;;9.83;66.73;102433.22;5117084;28;20052;-79
2022/01/01 01:07:16;;;;;;;;;;;;;;;9.90;66.54;102445.97;5114570;28;20367;-79
2022/01/01 01:09:44;;;;;;;;;;;;;;;10.01;66.36;102449.28;5108040;28;19920;-79
2022/01/01 01:12:09;;;;;;;;;;;;;;;10.12;66.25;102449.97;5112992;28;19955;-78
2022/01/01 01:14:40;;;;;;;;;;;;;;;10.30;66.20;102448.50;5101469;28;20378;-79
2022/01/01 01:17:06;;;;;;;;;;;;;;;10.38;66.31;102451.63;5110664;28;19969;-81
2022/01/01 01:19:35;;;;;;;;;;;;;;;10.41;66.42;102454.47;5095924;28;19966;-78
2022/01/01 01:22:01;;;;;;;;;;;;;;;10.47;66.54;102451.28;5115454;28;19920;-78
2022/01/01 01:24:26;;;;;;;;;;;;;;;10.54;66.65;102459.66;5112942;28;19935;-78
2022/01/01 01:26:53;;;;;;;;;;;;;;;10.59;66.78;102457.31;5115645;28;20267;-79
2022/01/01 01:29:24;;;;;;;;;;;;;;;10.65;67.01;102457.69;5114925;28;19946;-79
2022/01/01 01:31:49;;;;;;;;;;;;;;;10.70;67.44;102464.13;5095207;28;19931;-79
2022/01/01 01:34:14;;;;;;;;;;;;;;;10.71;67.99;102468.59;5095342;28;19920;-79
2022/01/01 01:36:40;;;;;;;;;;;;;;;10.77;68.63;102474.25;5114437;28;20412;-79
2022/01/01 01:39:06;;;;;;;;;;;;;;;10.81;69.53;102474.44;5115187;28;19919;-79
2022/01/01 01:41:31;;;;;;;;;;;;;;;10.84;70.55;102474.63;5098076;28;20332;-79
2022/01/01 01:44:02;;;;;;;;;;;;;;;10.86;71.87;102470.34;5098079;28;20018;-80
2022/01/01 01:46:27;;;;;;;;;;;;;;;10.88;73.84;102460.81;5082741;28;19924;-79
2022/01/01 01:49:00;;;;;;;;;;;;;;;10.92;75.95;102457.53;5097284;28;19928;-80
2022/01/01 01:51:25;;;;;;;;;;;;;;;10.91;78.61;102461.91;5094805;28;19951;-80
2022/01/01 01:53:52;;;;;;;;;;;;;;;10.92;80.43;102457.53;5094451;28;19924;-79
2022/01/01 01:56:18;;;;;;;;;;;;;;;10.98;82.55;102455.28;5107717;28;19919;-79
2022/01/01 01:58:46;;;;;;;;;;;;;;;10.96;84.54;102456.91;5097476;28;19923;-80
2022/01/01 02:03:39;;;;;;;;;;;;;;;10.94;88.49;102461.19;5111873;28;19922;-78
2022/01/01 02:06:06;;;;;;;;;;;;;;;10.94;90.16;102446.28;5114220;28;20279;-79
2022/01/01 02:08:32;;;;;;;;;;;;;;;10.91;92.26;102447.84;5116084;27;19920;-78
2022/01/01 02:10:57;;;;;;;;;;;;;;;10.94;93.78;102445.38;5114544;28;19919;-78
2022/01/01 02:13:32;;;;;;;;;;;;;;;10.93;95.13;102427.75;5114846;28;19926;-78
2022/01/01 02:18:24;;;;;;;;;;;;;;;10.91;98.73;102429.38;5115913;28;19956;-78
2022/01/01 02:20:50;;;;;;;;;;;;;;;10.91;100.00;102418.84;5104695;28;20019;-78
2022/01/01 02:23:16;;;;;;;;;;;;;;;10.88;100.00;102418.66;5094378;28;19963;-78
2022/01/01 02:25:42;;;;;;;;;;;;;;;10.87;100.00;102401.00;5094453;28;19920;-79
2022/01/01 02:28:12;;;;;;;;;;;;;;;10.87;100.00;102406.28;5094950;28;20014;-79
2022/01/01 02:30:38;;;;;;;;;;;;;;;10.91;100.00;102405.66;5117448;27;19920;-78
2022/01/01 02:33:06;;;;;;;;;;;;;;;10.92;100.00;102413.66;5115842;28;19931;-78
2022/01/01 02:35:32;;;;;;;;;;;;;;;10.92;100.00;102415.38;5114427;28;19923;-79
2022/01/01 02:37:59;;;;;;;;;;;;;;;10.97;100.00;102416.56;5113499;28;19934;-79
2022/01/01 02:40:25;;;;;;;;;;;;;;;11.01;100.00;102420.28;5115006;28;19924;-79
2022/01/01 02:42:51;;;;;;;;;;;;;;;10.98;100.00;102413.09;5097006;28;20356;-79
2022/01/01 02:45:18;;;;;;;;;;;;;;;10.97;100.00;102413.94;5114313;28;19919;-78
2022/01/01 02:47:43;;;;;;;;;;;;;;;10.96;100.00;102423.53;5114146;28;19940;-78
2022/01/01 02:50:10;;;;;;;;;;;;;;;11.00;100.00;102418.47;5114569;28;20363;-77
2022/01/01 02:52:35;;;;;;;;;;;;;;;11.01;100.00;102413.28;5096411;28;19928;-80
2022/01/01 02:55:01;;;;;;;;;;;;;;;11.00;100.00;102416.75;5093900;28;19932;-79
2022/01/01 02:57:27;;;;;;;;;;;;;;;11.01;100.00;102412.38;5094063;28;19916;-80
2022/01/01 02:59:52;;;;;;;;;;;;;;;11.01;100.00;102415.91;5111467;28;19975;-79
2022/01/01 03:02:17;;;;;;;;;;;;;;;11.00;100.00;102414.13;5111225;28;19920;-79
2022/01/01 03:04:43;;;;;;;;;;;;;;;10.97;100.00;102406.03;5093461;28;19967;-80
2022/01/01 03:07:09;;;;;;;;;;;;;;;11.00;100.00;102408.84;5096801;28;19927;-78
2022/01/01 03:09:37;;;;;;;;;;;;;;;10.95;100.00;102402.38;5097147;28;19923;-78
2022/01/01 03:12:04;;;;;;;;;;;;;;;10.93;100.00;102402.28;5079442;28;20382;-79
2022/01/01 03:14:30;;;;;;;;;;;;;;;10.94;100.00;102396.19;5101295;28;20283;-78
2022/01/01 03:16:57;;;;;;;;;;;;;;;10.91;100.00;102397.75;5114959;28;19924;-78
2022/01/01 03:19:24;;;;;;;;;;;;;;;10.93;100.00;102393.47;5126884;27;19954;-79
2022/01/01 03:21:51;;;;;;;;;;;;;;;10.89;100.00;102386.19;5099583;27;19927;-78
2022/01/01 03:24:17;;;;;;;;;;;;;;;10.91;100.00;102385.47;5109967;28;20052;-79
2022/01/01 03:26:43;;;;;;;;;;;;;;;10.94;100.00;102385.66;5115404;28;20046;-78
2022/01/01 03:29:12;;;;;;;;;;;;;;;10.92;100.00;102391.66;5108930;28;20372;-79
2022/01/01 03:31:37;;;;;;;;;;;;;;;10.85;100.00;102382.47;5112376;28;20063;-78
2022/01/01 03:34:03;;;;;;;;;;;;;;;10.86;100.00;102372.84;5116106;28;20013;-79
2022/01/01 03:36:28;;;;;;;;;;;;;;;10.82;100.00;102370.84;5117079;28;20283;-78
2022/01/01 03:38:55;;;;;;;;;;;;;;;10.74;100.00;102370.41;5095132;28;19924;-79
2022/01/01 03:41:20;;;;;;;;;;;;;;;10.67;100.00;102361.19;5096225;28;20423;-78
2022/01/01 03:43:46;;;;;;;;;;;;;;;10.58;100.00;102360.66;5096250;28;19959;-79
2022/01/01 03:46:11;;;;;;;;;;;;;;;10.47;100.00;102362.66;5098139;28;20264;-79
2022/01/01 03:48:37;;;;;;;;;;;;;;;10.44;100.00;102374.72;5096970;28;19920;-79
2022/01/01 03:51:02;;;;;;;;;;;;;;;10.39;100.00;102370.09;5108787;28;19920;-79
2022/01/01 03:53:27;;;;;;;;;;;;;;;10.36;100.00;102369.91;5096443;28;19923;-77
2022/01/01 03:55:52;;;;;;;;;;;;;;;10.30;100.00;102376.47;5114350;28;19926;-78
2022/01/01 03:58:26;;;;;;;;;;;;;;;10.33;100.00;102380.25;5117237;28;19945;-78
2022/01/01 04:00:52;;;;;;;;;;;;;;;10.27;100.00;102377.22;5116912;28;19926;-78
2022/01/01 04:03:18;;;;;;;;;;;;;;;10.21;100.00;102375.09;5098106;28;19954;-79
2022/01/01 04:05:44;;;;;;;;;;;;;;;10.19;100.00;102387.28;5116795;28;20386;-78
2022/01/01 04:08:13;;;;;;;;;;;;;;;10.17;100.00;102393.25;5116716;28;19919;-77
2022/01/01 04:10:39;;;;;;;;;;;;;;;10.18;100.00;102395.06;5085336;28;20011;-80
2022/01/01 04:13:05;;;;;;;;;;;;;;;10.18;100.00;102397.69;5096146;28;20411;-79
2022/01/01 04:15:32;;;;;;;;;;;;;;;10.27;100.00;102403.53;5130734;28;20053;-79
2022/01/01 04:18:03;;;;;;;;;;;;;;;10.31;100.00;102397.63;5116248;28;20051;-79
2022/01/01 04:20:28;;;;;;;;;;;;;;;10.31;100.00;102392.34;5088131;28;20318;-79
2022/01/01 04:22:54;;;;;;;;;;;;;;;10.30;100.00;102410.69;5095413;28;19920;-78
2022/01/01 04:25:20;;;;;;;;;;;;;;;10.37;100.00;102399.78;5079155;28;19968;-78
2022/01/01 04:27:48;;;;;;;;;;;;;;;10.41;100.00;102405.31;5095116;28;19934;-78
2022/01/01 04:30:14;;;;;;;;;;;;;;;10.44;100.00;102399.34;5079778;28;20011;-78
2022/01/01 04:32:39;;;;;;;;;;;;;;;10.40;100.00;102408.75;5095684;28;20343;-80
2022/01/01 04:35:05;;;;;;;;;;;;;;;10.46;100.00;102404.72;5095847;28;19915;-78
2022/01/01 04:37:31;;;;;;;;;;;;;;;10.47;100.00;102417.03;5095328;28;20455;-78
2022/01/01 04:39:59;;;;;;;;;;;;;;;10.47;100.00;102411.78;5099851;28;19927;-78
2022/01/01 04:42:27;;;;;;;;;;;;;;;10.44;100.00;102415.16;5117658;27;20010;-78
2022/01/01 04:44:53;;;;;;;;;;;;;;;10.44;100.00;102420.41;5116599;27;20002;-78
2022/01/01 04:47:21;;;;;;;;;;;;;;;10.50;100.00;102425.13;5117103;28;20003;-78
2022/01/01 04:49:46;;;;;;;;;;;;;;;10.52;100.00;102421.78;5100929;27;19924;-79
2022/01/01 04:52:11;;;;;;;;;;;;;;;10.51;100.00;102421.69;5120114;27;20010;-78
2022/01/01 04:54:41;;;;;;;;;;;;;;;10.48;100.00;102418.88;5138961;27;20270;-79
2022/01/01 04:57:08;;;;;;;;;;;;;;;10.48;100.00;102416.25;5098604;28;19924;-79
2022/01/01 04:59:34;;;;;;;;;;;;;;;10.44;100.00;102414.22;5117414;28;20356;-78
2022/01/01 05:02:00;;;;;;;;;;;;;;;10.47;100.00;102417.03;5098795;28;19997;-79
2022/01/01 05:04:25;;;;;;;;;;;;;;;10.47;100.00;102419.69;5098967;28;20014;-78
2022/01/01 05:06:51;;;;;;;;;;;;;;;10.49;100.00;102418.06;5116186;27;19919;-78
2022/01/01 05:09:20;;;;;;;;;;;;;;;10.49;100.00;102408.44;5102498;27;19933;-78
2022/01/01 05:11:47;;;;;;;;;;;;;;;10.47;100.00;102402.16;5119146;27;20560;-78
2022/01/01 05:14:13;;;;;;;;;;;;;;;10.49;100.00;102397.00;5118741;27;20312;-78
2022/01/01 05:16:38;;;;;;;;;;;;;;;10.54;100.00;102400.81;5119216;27;19964;-78
2022/01/01 05:19:04;;;;;;;;;;;;;;;10.55;100.00;102397.34;5118036;27;19919;-79
2022/01/01 05:21:32;;;;;;;;;;;;;;;10.55;100.00;102397.34;5118844;27;19926;-79
2022/01/01 05:23:59;;;;;;;;;;;;;;;10.57;100.00;102395.72;5086488;27;19972;-77
2022/01/01 05:26:25;;;;;;;;;;;;;;;10.58;100.00;102385.28;5118457;27;19923;-78
2022/01/01 05:28:50;;;;;;;;;;;;;;;10.57;100.00;102377.28;5099900;27;19924;-79
2022/01/01 05:31:16;;;;;;;;;;;;;;;10.52;100.00;102377.00;5119016;27;19931;-78
2022/01/01 05:33:41;;;;;;;;;;;;;;;10.51;100.00;102366.38;5118369;27;19927;-78
2022/01/01 05:36:07;;;;;;;;;;;;;;;10.38;100.00;102370.91;5114616;28;20469;-78
2022/01/01 05:38:32;;;;;;;;;;;;;;;10.33;100.00;102367.09;5097043;28;19920;-79
2022/01/01 05:41:00;;;;;;;;;;;;;;;10.37;100.00;102358.53;5114211;27;19920;-78
2022/01/01 05:43:27;;;;;;;;;;;;;;;10.40;100.00;102348.19;5102269;27;20360;-77
2022/01/01 05:45:53;;;;;;;;;;;;;;;10.46;100.00;102333.59;5118248;27;19919;-78
2022/01/01 05:48:21;;;;;;;;;;;;;;;10.50;100.00;102330.31;5136545;27;19923;-78
2022/01/01 05:50:47;;;;;;;;;;;;;;;10.53;100.00;102327.88;5102073;28;19969;-79
2022/01/01 05:53:14;;;;;;;;;;;;;;;10.56;100.00;102330.69;5116057;28;19924;-78
2022/01/01 05:55:39;;;;;;;;;;;;;;;10.61;100.00;102329.22;5097483;28;20341;-78
2022/01/01 05:58:08;;;;;;;;;;;;;;;10.62;100.00;102324.88;5097821;28;20010;-79
2022/01/01 06:00:34;;;;;;;;;;;;;;;10.65;100.00;102325.97;5110781;27;19919;-78
2022/01/01 06:02:59;;;;;;;;;;;;;;;10.65;100.00;102325.06;5101196;27;20320;-78
2022/01/01 06:05:26;;;;;;;;;;;;;;;10.68;100.00;102315.59;5117830;27;19940;-79
2022/01/01 06:08:02;;;;;;;;;;;;;;;10.76;100.00;102316.97;5136036;27;19923;-77
2022/01/01 06:10:30;;;;;;;;;;;;;;;10.74;100.00;102315.06;5118109;27;19919;-79
2022/01/01 06:12:56;;;;;;;;;;;;;;;10.78;100.00;102304.81;5117865;27;19930;-78
2022/01/01 06:15:22;;;;;;;;;;;;;;;10.83;100.00;102293.59;5108401;28;19920;-77
2022/01/01 06:17:48;;;;;;;;;;;;;;;10.84;100.00;102301.59;5080319;28;20356;-78
2022/01/01 06:20:14;;;;;;;;;;;;;;;10.82;100.00;102297.06;5097670;28;19920;-78
2022/01/01 06:22:40;;;;;;;;;;;;;;;10.85;100.00;102294.63;5097514;28;19920;-78
2022/01/01 06:25:06;;;;;;;;;;;;;;;10.86;100.00;102293.78;5097493;28;20371;-79
2022/01/01 06:27:32;;;;;;;;;;;;;;;10.86;100.00;102283.25;5097265;28;19974;-78
2022/01/01 06:29:57;;;;;;;;;;;;;;;10.83;100.00;102281.34;5101783;27;19959;-77
2022/01/01 06:32:23;;;;;;;;;;;;;;;10.84;100.00;102280.50;5117277;27;19926;-78
2022/01/01 06:34:49;;;;;;;;;;;;;;;10.85;100.00;102279.72;5097154;28;19920;-78
2022/01/01 06:37:17;;;;;;;;;;;;;;;10.87;100.00;102275.41;5110762;27;19919;-78
2022/01/01 06:39:42;;;;;;;;;;;;;;;10.87;100.00;102277.16;5117660;27;19951;-78
2022/01/01 06:42:08;;;;;;;;;;;;;;;10.93;100.00;102280.16;5136228;27;19919;-79
2022/01/01 06:44:34;;;;;;;;;;;;;;;10.90;100.00;102272.97;5117735;27;20275;-78
2022/01/01 06:46:59;;;;;;;;;;;;;;;10.89;100.00;102272.88;5115051;27;20271;-78
2022/01/01 06:49:24;;;;;;;;;;;;;;;10.90;100.00;102266.78;5117392;27;19919;-77
2022/01/01 06:51:51;;;;;;;;;;;;;;;10.91;100.00;102268.63;5101686;28;20366;-79
2022/01/01 06:54:19;;;;;;;;;;;;;;;10.91;100.00;102265.97;5097064;28;19923;-79
2022/01/01 06:56:44;;;;;;;;;;;;;;;10.90;100.00;102246.59;5112182;27;19926;-78
2022/01/01 06:59:10;;;;;;;;;;;;;;;10.94;100.00;102247.72;5117530;27;19920;-78
2022/01/01 07:01:36;;;;;;;;;;;;;;;10.93;100.00;102251.16;5103511;28;20364;-77
2022/01/01 07:04:03;;;;;;;;;;;;;;;10.91;100.00;102245.78;5096357;28;19969;-77
2022/01/01 07:06:28;;;;;;;;;;;;;;;10.93;100.00;102248.53;5092478;28;19924;-78
2022/01/01 07:08:58;;;;;;;;;;;;;;;10.93;100.00;102253.78;5092886;28;19924;-78
2022/01/01 07:11:23;;;;;;;;;;;;;;;10.89;100.00;102247.44;5104549;28;20268;-78
2022/01/01 07:13:48;;;;;;;;;;;;;;;10.90;100.00;102253.63;5096575;28;19923;-78
2022/01/01 07:16:14;;;;;;;;;;;;;;;10.86;100.00;102252.53;5104327;28;19920;-79
2022/01/01 07:18:40;;;;;;;;;;;;;;;10.89;100.00;102239.53;5092979;28;20348;-78
2022/01/01 07:21:05;;;;;;;;;;;;;;;10.89;100.00;102241.25;5099255;28;19919;-78
2022/01/01 07:23:31;;;;;;;;;;;;;;;10.84;100.00;102254.16;5113874;28;19954;-79
2022/01/01 07:25:56;;;;;;;;;;;;;;;10.83;100.00;102254.06;5108845;28;19916;-79
2022/01/01 07:28:23;;;;;;;;;;;;;;;10.83;100.00;102252.38;5094595;28;19921;-78
2022/01/01 07:30:58;;;;;;;;;;;;;;;10.83;100.00;102261.97;5096714;28;20319;-77
2022/01/01 07:33:24;;;;;;;;;;;;;;;10.81;100.00;102266.25;5107478;28;19927;-78
2022/01/01 07:35:49;;;;;;;;;;;;;;;10.79;100.00;102266.19;5095698;28;20288;-76
2022/01/01 07:38:15;;;;;;;;;;;;;;;10.78;100.00;102269.63;5093944;28;19921;-78
2022/01/01 07:40:41;;;;;;;;;;;;;;;10.76;100.00;102277.44;5110778;28;19927;-79
2022/01/01 07:43:15;;;;;;;;;;;;;;;10.77;100.00;102268.72;5113922;28;19947;-79
2022/01/01 07:45:40;;;;;;;;;;;;;;;10.82;100.00;102276.00;5097029;28;19959;-79
2022/01/01 07:48:07;;;;;;;;;;;;;;;10.80;100.00;102272.34;5101055;28;19978;-79
2022/01/01 07:50:32;;;;;;;;;;;;;;;10.80;100.00;102278.53;5094255;28;19920;-78
2022/01/01 07:52:58;;;;;;;;;;;;;;;10.79;100.00;102284.63;5094069;28;20427;-78
2022/01/01 07:55:23;;;;;;;;;;;;;;;10.82;100.00;102276.88;5088501;28;20570;-79
2022/01/01 07:57:51;;;;;;;;;;;;;;;10.80;100.00;102272.34;5115276;28;20014;-80
2022/01/01 08:00:16;;;;;;;;;;;;;;;10.84;100.00;102272.59;5113247;28;19924;-79
2022/01/01 08:02:42;;;;;;;;;;;;;;;10.79;100.00;102268.81;5096264;28;19951;-79
2022/01/01 08:05:08;;;;;;;;;;;;;;;10.81;100.00;102267.16;5102110;28;20427;-80
2022/01/01 08:07:41;;;;;;;;;;;;;;;10.77;100.00;102267.81;5095823;28;19920;-79
2022/01/01 08:10:07;;;;;;;;;;;;;;;10.74;100.00;102258.00;5096743;28;19931;-79
2022/01/01 08:12:32;;;;;;;;;;;;;;;10.76;100.00;102266.00;5096220;28;19919;-80
2022/01/01 08:14:59;;;;;;;;;;;;;;;10.77;100.00;102267.81;5095367;28;19920;-79
2022/01/01 08:17:26;;;;;;;;;;;;;;;10.81;100.00;102268.91;5117437;28;19926;-79
2022/01/01 08:19:51;;;;;;;;;;;;;;;10.81;100.00;102268.91;5099955;28;19923;-79
2022/01/01 08:22:19;;;;;;;;;;;;;;;10.89;100.00;102273.81;5110968;27;19924;-80
2022/01/01 08:24:44;;;;;;;;;;;;;;;10.92;100.00;102262.50;5120375;27;20271;-80
2022/01/01 08:27:10;;;;;;;;;;;;;;;10.91;100.00;102273.88;5138545;27;19919;-79
2022/01/01 08:29:36;;;;;;;;;;;;;;;10.92;100.00;102283.59;5119459;27;19920;-79
2022/01/01 08:32:02;;;;;;;;;;;;;;;10.91;100.00;102279.16;5131049;27;20377;-78
2022/01/01 08:34:27;;;;;;;;;;;;;;;10.92;100.00;102278.31;5137528;27;19919;-78
2022/01/01 08:36:53;;;;;;;;;;;;;;;10.83;100.00;102278.72;5118863;27;20350;-79
2022/01/01 08:39:18;;;;;;;;;;;;;;;10.78;100.00;102275.81;5106184;28;19920;-79
2022/01/01 08:41:44;;;;;;;;;;;;;;;10.80;100.00;102269.72;5099683;28;20351;-79
2022/01/01 08:44:10;;;;;;;;;;;;;;;10.75;100.00;102265.09;5107354;27;19980;-79
2022/01/01 08:46:36;;;;;;;;;;;;;;;10.68;100.00;102247.09;5119040;27;19963;-79
2022/01/01 08:49:03;;;;;;;;;;;;;;;10.68;100.00;102257.66;5137910;27;19923;-80
2022/01/01 08:51:29;;;;;;;;;;;;;;;10.66;100.00;102248.75;5137855;27;19951;-79
2022/01/01 08:53:54;;;;;;;;;;;;;;;10.65;100.00;102252.19;5119180;27;19968;-78
2022/01/01 08:56:20;;;;;;;;;;;;;;;10.60;100.00;102251.03;5105987;28;20275;-78
2022/01/01 08:58:46;;;;;;;;;;;;;;;10.58;100.00;102244.75;5127741;27;20004;-79
2022/01/01 09:01:12;;;;;;;;;;;;;;;10.56;100.00;102246.41;5119837;27;19920;-79
2022/01/01 09:03:38;;;;;;;;;;;;;;;10.57;100.00;102253.50;5102369;27;19919;-79
2022/01/01 09:06:04;;;;;;;;;;;;;;;10.58;100.00;102245.69;5115519;28;19972;-78
2022/01/01 09:08:35;;;;;;;;;;;;;;;10.60;100.00;102253.66;5095595;28;19920;-78
2022/01/01 09:11:06;;;;;;;;;;;;;;;10.62;100.00;102265.19;5095297;28;20079;-77
2022/01/01 09:13:31;;;;;;;;;;;;;;;10.68;100.00;102262.03;5078629;28;19951;-79
2022/01/01 09:15:56;;;;;;;;;;;;;;;10.71;100.00;102249.91;5095159;28;20364;-79
2022/01/01 09:18:23;;;;;;;;;;;;;;;10.71;100.00;102255.19;5095312;28;20268;-78
2022/01/01 09:20:48;;;;;;;;;;;;;;;10.72;100.00;102254.38;5104156;28;20352;-78
2022/01/01 09:23:15;;;;;;;;;;;;;;;10.68;100.00;102255.00;5132579;27;19919;-78
2022/01/01 09:25:41;;;;;;;;;;;;;;;10.68;100.00;102251.47;5132752;27;19919;-80
2022/01/01 09:28:09;;;;;;;;;;;;;;;10.64;100.00;102233.66;5115652;27;20005;-79
2022/01/01 09:30:35;;;;;;;;;;;;;;;10.63;100.00;102230.13;5084203;28;20001;-78
2022/01/01 09:33:00;;;;;;;;;;;;;;;10.62;100.00;102220.41;5108524;28;20301;-78
2022/01/01 09:35:26;;;;;;;;;;;;;;;10.66;100.00;102205.69;5098901;28;19924;-79
2022/01/01 09:37:52;;;;;;;;;;;;;;;10.71;100.00;102209.50;5102370;27;20015;-79
2022/01/01 09:40:18;;;;;;;;;;;;;;;10.71;100.00;102204.25;5114714;28;19920;-80
2022/01/01 09:42:46;;;;;;;;;;;;;;;10.77;100.00;102201.94;5115421;28;19927;-79
2022/01/01 09:45:11;;;;;;;;;;;;;;;10.81;100.00;102210.94;5115451;28;19920;-79
2022/01/01 09:47:37;;;;;;;;;;;;;;;10.78;100.00;102209.00;5115405;28;19920;-79
2022/01/01 09:50:08;;;;;;;;;;;;;;;10.77;100.00;102208.13;5114439;28;19927;-79
2022/01/01 09:52:34;;;;;;;;;;;;;;;10.77;100.00;102210.75;5115475;28;19947;-78
2022/01/01 09:54:59;;;;;;;;;;;;;;;10.74;100.00;102197.41;5111986;28;19920;-78
2022/01/01 09:57:25;;;;;;;;;;;;;;;10.78;100.00;102196.78;5113310;28;19916;-78
2022/01/01 09:59:51;;;;;;;;;;;;;;;10.62;100.00;102207.25;5114727;28;19926;-78
2022/01/01 10:02:18;;;;;;;;;;;;;;;10.62;100.00;102209.88;5114693;28;19924;-78
2022/01/01 10:04:45;;;;;;;;;;;;;;;10.67;100.00;102218.94;5097988;28;19978;-78
2022/01/01 10:07:13;;;;;;;;;;;;;;;10.63;100.00;102218.66;5093897;28;20368;-79
2022/01/01 10:09:39;;;;;;;;;;;;;;;10.64;100.00;102218.75;5093527;28;19920;-79
2022/01/01 10:12:09;;;;;;;;;;;;;;;10.72;100.00;102227.09;5109900;28;19928;-78
2022/01/01 10:14:35;;;;;;;;;;;;;;;10.75;100.00;102212.41;5093999;28;19924;-78
2022/01/01 10:17:06;;;;;;;;;;;;;;;10.84;100.00;102216.38;5088857;28;20336;-79
2022/01/01 10:19:32;;;;;;;;;;;;;;;10.93;100.00;102211.63;5076401;28;19928;-78
2022/01/01 10:22:02;;;;;;;;;;;;;;;10.95;100.00;102215.25;5073674;28;20020;-78
2022/01/01 10:27:42;;;;;;;;;;;;;;;10.98;100.00;102210.13;5094510;28;19920;-79
2022/01/01 10:30:22;;;;;;;;;;;;;;;11.00;100.00;102213.78;5061101;28;19921;-79
2022/01/01 10:32:59;;;;;;;;;;;;;;;11.02;100.00;102224.44;5095327;28;20611;-79
2022/01/01 10:35:25;;;;;;;;;;;;;;;11.01;100.00;102226.13;5094186;28;19920;-78
2022/01/01 10:37:53;;;;;;;;;;;;;;;11.04;100.00;102218.41;5093103;28;19927;-78
2022/01/01 10:40:26;;;;;;;;;;;;;;;11.07;100.00;102218.56;5095032;28;19920;-78
2022/01/01 10:42:54;;;;;;;;;;;;;;;11.16;100.00;102206.75;5094947;28;20547;-79
2022/01/01 10:45:39;;;;;;;;;;;;;;;11.22;100.00;102205.34;5076297;28;19928;-79
2022/01/01 10:48:28;;;;;;;;;;;;;;;11.36;100.00;102194.63;5090620;28;19936;-79
2022/01/01 10:50:54;;;;;;;;;;;;;;;11.37;100.00;102186.78;5072942;28;19920;-80
2022/01/01 10:53:39;;;;;;;;;;;;;;;11.46;100.00;102189.91;5073682;28;19927;-79
2022/01/01 10:56:15;;;;;;;;;;;;;;;11.50;100.00;102199.81;5072747;28;19925;-79
2022/01/01 10:58:54;;;;;;;;;;;;;;;11.53;100.00;102195.53;5090217;28;19916;-81
2022/01/01 11:01:20;;;;;;;;;;;;;;;11.54;100.00;102195.59;5082480;28;19921;-79
2022/01/01 11:04:03;;;;;;;;;;;;;;;11.55;100.00;102193.91;5073886;28;19953;-79
2022/01/01 11:06:32;;;;;;;;;;;;;;;11.59;100.00;102180.97;5085472;28;19920;-79
2022/01/01 11:09:16;;;;;;;;;;;;;;;11.64;100.00;102173.28;5032834;27;2324133;-79
2022/01/01 11:11:42;;;;;;;;;;;;;;;11.73;100.00;102179.03;5113886;28;19920;-80
2022/01/01 11:14:09;;;;;;;;;;;;;;;11.79;100.00;102179.38;5114283;28;19927;-80
2022/01/01 11:16:34;;;;;;;;;;;;;;;11.96;100.00;102174.06;5114568;28;19930;-79
2022/01/01 11:19:00;;;;;;;;;;;;;;;11.95;100.00;102181.09;5106357;28;20011;-79
2022/01/01 11:21:25;;;;;;;;;;;;;;;12.09;100.00;102176.53;5093650;28;20376;-79
2022/01/01 11:23:51;;;;;;;;;;;;;;;12.12;100.00;102158.19;5119329;28;19982;-79
2022/01/01 11:26:16;;;;;;;;;;;;;;;12.18;100.00;102155.88;5113923;28;19920;-78
2022/01/01 11:28:46;;;;;;;;;;;;;;;12.27;100.00;102143.94;5124115;28;20003;-80
2022/01/01 11:31:15;;;;;;;;;;;;;;;12.29;100.00;102137.00;5093283;28;20382;-81
2022/01/01 11:33:43;;;;;;;;;;;;;;;12.22;100.00;102127.88;5093100;28;19997;-78
2022/01/01 11:36:19;;;;;;;;;;;;;;;12.16;100.00;102125.81;5111670;28;19946;-78
2022/01/01 11:38:45;;;;;;;;;;;;;;;12.03;100.00;102121.66;5092792;28;19973;-79
2022/01/01 11:41:12;;;;;;;;;;;;;;;11.95;100.00;102123.03;5093260;28;19924;-78
2022/01/01 11:43:51;;;;;;;;;;;;;;;11.92;100.00;102124.56;5093575;28;19920;-80
2022/01/01 11:46:20;;;;;;;;;;;;;;;11.90;100.00;102123.56;5106183;28;20019;-79
2022/01/01 11:48:48;;;;;;;;;;;;;;;11.89;100.00;102134.97;5113048;28;19920;-79
2022/01/01 11:51:38;;;;;;;;;;;;;;;11.94;100.00;102134.41;5131868;28;20006;-78
2022/01/01 11:54:03;;;;;;;;;;;;;;;11.97;100.00;102137.19;5092819;28;19920;-79
2022/01/01 11:56:49;;;;;;;;;;;;;;;12.05;100.00;102136.69;5093583;28;19926;-78
2022/01/01 11:59:20;;;;;;;;;;;;;;;12.12;100.00;102145.00;5092891;28;20257;-79
2022/01/01 12:01:47;;;;;;;;;;;;;;;12.02;100.00;102140.06;5093327;28;19927;-79
2022/01/01 12:04:21;;;;;;;;;;;;;;;12.00;100.00;102141.72;5076152;28;19924;-79
2022/01/01 12:06:51;;;;;;;;;;;;;;;12.05;100.00;102139.31;5098030;28;19919;-80
2022/01/01 12:09:16;;;;;;;;;;;;;;;12.13;100.00;102128.31;5096679;28;19959;-79
2022/01/01 12:11:49;;;;;;;;;;;;;;;12.21;100.00;102119.06;5113204;28;19919;-78
2022/01/01 12:14:25;;;;;;;;;;;;;;;12.27;100.00;102123.72;5113397;28;19927;-80
2022/01/01 12:16:52;;;;;;;;;;;;;;;12.30;100.00;102125.59;5112757;28;19919;-78
2022/01/01 12:19:20;;;;;;;;;;;;;;;12.32;100.00;102123.94;5105686;28;19968;-80
2022/01/01 12:21:45;;;;;;;;;;;;;;;12.39;100.00;102120.78;5099130;28;19966;-80
2022/01/01 12:24:17;;;;;;;;;;;;;;;12.46;100.00;102119.31;5098946;28;20104;-80
2022/01/01 12:26:49;;;;;;;;;;;;;;;12.55;100.00;102102.22;5097467;28;19926;-79
2022/01/01 12:29:20;;;;;;;;;;;;;;;12.56;100.00;102093.44;5099324;28;20004;-78
2022/01/01 12:31:56;;;;;;;;;;;;;;;12.56;100.00;102085.50;5099278;28;19919;-79
2022/01/01 12:34:25;;;;;;;;;;;;;;;12.55;100.00;102083.72;5098685;28;20264;-78
2022/01/01 12:36:55;;;;;;;;;;;;;;;12.57;100.00;102082.03;5097926;28;19920;-79